Nearby METAR Reports

 

KGRB - Ashwaubenon, Wisconsin, USA
Distance from station: WSW 10mi, 16km
Updated: 05/25/2017 4:53pm
Clear
Clear
 Wind from NE
Wind: NE 16 mph , 26 km/h
Temperature: 70°F , 21°C
Dew Point: 54°F , 12°C
Humidity: 57%
Barometer: 29.67 inHg , 1004.7 hPa
Clouds: Clear
Visibility: 10 miles , 16 km
2017/05/25 21:53 KGRB 252153Z 04014KT 10SM CLR 21/12 A2967 RMK AO2 SLP046 T02060117
KOCQ - Oconto, Wisconsin, USA
Distance from station: N 24mi, 39km
Updated: 05/25/2017 4:35pm
Mostly cloudy
Mostly cloudy
 Wind from E
Wind: E 10 mph , 17 km/h
Temperature: 68°F , 20°C
Dew Point: 48°F , 9°C
Humidity: 49%
Barometer: 29.66 inHg , 1004.4 hPa
Clouds: Mostly cloudy
Visibility: 10 miles , 16 km
Cloud details: Mostly cloudy 9000 ft
2017/05/25 21:35 KOCQ 252135Z AUTO 10009KT 10SM BKN090 20/09 A2966 RMK AO1 T02000090
KMTW - Manitowac Muni, Wisconsin, USA
Distance from station: SSE 31mi, 49km
Updated: 05/25/2017 4:56pm
Clear
Clear
 Wind from NNE
Wind: NNE 13 mph , 20 km/h
Temperature: 64°F , 18°C
Dew Point: 52°F , 11°C
Humidity: 64%
Barometer: 29.67 inHg , 1004.7 hPa
Clouds: Clear
Visibility: 10 miles , 16 km
2017/05/25 21:56 KMTW 252156Z AUTO 03011KT 10SM CLR 18/11 A2967 RMK AO2 SLP067 T01780106
 
KATW - Appleton/Outagam, Wisconsin, USA
Distance from station: WSW 33mi, 54km
Updated: 05/25/2017 3:45pm
NOT Current
Partly cloudy
Partly cloudy
 Wind from ENE
Wind: ENE 14 mph , 22 km/h, Gust: 21 mph , 33 km/h
Temperature: 70°F , 21°C
Dew Point: 46°F , 8°C
Humidity: 43%
Barometer: 29.66 inHg , 1004.4 hPa
Clouds: Partly cloudy
Visibility: 10 miles , 16 km
Cloud details: Partly cloudy 3700 ft
2017/05/25 20:45 KATW 252045Z 06012G18KT 10SM SCT037 21/08 A2966
KSUE - Sturgeon Bay, Wisconsin, USA
Distance from station: NE 34mi, 55km
Updated: 05/25/2017 4:56pm
Clear
Clear
 Wind from ENE
Wind: ENE 8 mph , 13 km/h
Temperature: 66°F , 19°C
Dew Point: 52°F , 11°C
Humidity: 60%
Barometer: 29.67 inHg , 1004.7 hPa
Clouds: Clear
Visibility: 10 miles , 16 km
2017/05/25 21:56 KSUE 252156Z AUTO 07007KT 10SM CLR 19/11 A2967 RMK AO2 SLP070 T01890111
KEZS - Shawano Muni, Wisconsin, USA
Distance from station: WNW 36mi, 58km
Updated: 05/25/2017 4:55pm
Mostly cloudy
Mostly cloudy
 Wind from E
Wind: E 3 mph , 6 km/h
Temperature: 70°F , 21°C
Dew Point: 52°F , 11°C
Humidity: 53%
Barometer: 29.66 inHg , 1004.4 hPa
Clouds: Mostly cloudy
Visibility: 10 miles , 16 km
Cloud details: Mostly cloudy 5000 ft
2017/05/25 21:55 KEZS 252155Z AUTO 08003KT 10SM BKN050 21/11 A2966 RMK AO2 T02130105
 
KCLI - Clintonville, Wisconsin, USA
Distance from station: W 40mi, 64km
Updated: 05/25/2017 4:55pm
Mostly cloudy
Mostly cloudy
 Wind from E
Wind: E 5 mph , 7 km/h
Temperature: 70°F , 21°C
Dew Point: 46°F , 8°C
Humidity: 43%
Barometer: 29.66 inHg , 1004.4 hPa
Clouds: Mostly cloudy
Visibility: 10 miles , 16 km
Cloud details: Mostly cloudy 5000 ft
Mostly cloudy 6500 ft
2017/05/25 21:55 KCLI 252155Z AUTO 08004KT 10SM BKN050 BKN065 21/08 A2966 RMK AO2
KMNM - Menominee, Michigan, USA
Distance from station: NNE 44mi, 72km
Updated: 05/25/2017 4:56pm
Overcast
Overcast
 Wind from E
Wind: E 6 mph , 9 km/h
Temperature: 64°F , 18°C
Dew Point: 52°F , 11°C
Humidity: 64%
Barometer: 29.68 inHg , 1005.1 hPa
Clouds: Overcast
Visibility: 10 miles , 16 km
Cloud details: Partly cloudy 7000 ft
Overcast 8500 ft
2017/05/25 21:56 KMNM 252156Z AUTO 10005KT 10SM SCT070 OVC085 18/11 A2968 RMK AO2 SLP067 T01830106 $
KOSH - Oshkosh, Wisconsin, USA
Distance from station: SW 49mi, 78km
Updated: 05/25/2017 4:53pm
Clear
Clear
 Wind from NNE
Wind: NNE 13 mph , 20 km/h
Temperature: 68°F , 20°C
Dew Point: 52°F , 11°C
Humidity: 56%
Barometer: 29.67 inHg , 1004.7 hPa
Clouds: Clear
Visibility: 10 miles , 16 km
2017/05/25 21:53 KOSH 252153Z 03011KT 10SM CLR 20/11 A2967 RMK AO2 SLP042 T02000111
 
KSBM - Sheboygan, Wisconsin, USA
Distance from station: S 51mi, 82km
Updated: 05/25/2017 4:53pm
Few Clouds
Few Clouds
 Wind from ENE
Wind: ENE 12 mph , 19 km/h
Temperature: 63°F , 17°C
Dew Point: 55°F , 13°C
Humidity: 77%
Barometer: 29.67 inHg , 1004.7 hPa
Clouds: Few Clouds
Visibility: 10 miles , 16 km
Cloud details: Few Clouds 8000 ft
2017/05/25 21:53 KSBM 252153Z AUTO 06010KT 10SM FEW080 17/13 A2967 RMK AO2 SLP046 T01720128
KPCZ - Waupaca, Wisconsin, USA
Distance from station: WSW 55mi, 88km
Updated: 05/25/2017 4:55pm
Partly cloudy
Partly cloudy
 Wind from SE
Wind: SE 3 mph , 6 km/h
Temperature: 73°F , 23°C
Dew Point: 50°F , 10°C
Humidity: 44%
Barometer: 29.67 inHg , 1004.7 hPa
Clouds: Partly cloudy
Visibility: 10 miles , 16 km
Cloud details: Partly cloudy 4600 ft
2017/05/25 21:55 KPCZ 252155Z AUTO 13003KT 10SM SCT046 23/10 A2967 RMK AO2 T02300098
KFLD - Fond Du Lac, Wisconsin, USA
Distance from station: SSW 58mi, 94km
Updated: 05/25/2017 4:53pm
Clear
Clear
 Wind from N
Wind: N 10 mph , 17 km/h
Temperature: 70°F , 21°C
Dew Point: 52°F , 11°C
Humidity: 53%
Barometer: 29.67 inHg , 1004.7 hPa
Clouds: Clear
Visibility: 10 miles , 16 km
2017/05/25 21:53 KFLD 252153Z AUTO 36009KT 10SM CLR 21/11 A2967 RMK AO2 SLP047 T02060106
 
KAIG - Antigo/Langlade, Wisconsin, USA
Distance from station: NW 73mi, 117km
Updated: 05/25/2017 4:35pm
Overcast
Overcast
 Wind from E
Wind: E 7 mph , 11 km/h
Temperature: 66°F , 19°C
Dew Point: 50°F , 10°C
Humidity: 56%
Barometer: 29.69 inHg , 1005.4 hPa
Clouds: Overcast
Visibility: 10 miles , 16 km
Cloud details: Mostly cloudy 5000 ft
Overcast 6500 ft
2017/05/25 21:35 KAIG 252135Z AUTO 09006KT 10SM BKN050 OVC065 19/10 A2969 RMK AO2 T01860102
KY50 - Wautoma, Wisconsin, USA
Distance from station: WSW 75mi, 121km
Updated: 05/25/2017 4:56pm
Partly cloudy
Partly cloudy
 Wind from ESE
Wind: ESE 7 mph , 11 km/h
Temperature: 70°F , 21°C
Dew Point: 52°F , 11°C
Humidity: 53%
Barometer: 29.67 inHg , 1004.7 hPa
Clouds: Partly cloudy
Visibility: 10 miles , 16 km
Cloud details: Partly cloudy 8000 ft
2017/05/25 21:56 KY50 252156Z AUTO 12006KT 10SM SCT080 21/11 A2967 RMK AO2 SLP070 T02110106
KETB - West Bend, Wisconsin, USA
Distance from station: S 76mi, 123km
Updated: 05/25/2017 4:35pm
Overcast
Overcast
 Wind from NE
Wind: NE 9 mph , 15 km/h
Temperature: 64°F , 18°C
Dew Point: 50°F , 10°C
Humidity: 60%
Barometer: 29.66 inHg , 1004.4 hPa
Clouds: Overcast
Visibility: 10 miles , 16 km
Cloud details: Partly cloudy 6000 ft
Overcast 7000 ft
2017/05/25 21:35 KETB 252135Z AUTO 05008KT 10SM SCT060 OVC070 18/10 A2966 RMK AO2
 
KSTE - Stevens Point, Wisconsin, USA
Distance from station: W 79mi, 127km
Updated: 05/25/2017 4:35pm
Clear
Clear
 Wind from E
Wind: E 8 mph , 13 km/h
Temperature: 68°F , 20°C
Dew Point: 48°F , 9°C
Humidity: 49%
Barometer: 29.67 inHg , 1004.7 hPa
Clouds: Clear
Visibility: 10 miles , 16 km
2017/05/25 21:35 KSTE 252135Z AUTO 10007KT 10SM CLR 20/09 A2967 RMK AO2 T01960090
KUNU - Juneau, Wisconsin, USA
Distance from station: SSW 85mi, 137km
Updated: 05/25/2017 4:35pm
Overcast
Overcast
 Wind from N
Wind: N 8 mph , 13 km/h
Temperature: 66°F , 19°C
Dew Point: 54°F , 12°C
Humidity: 64%
Barometer: 29.68 inHg , 1005.1 hPa
Clouds: Overcast
Visibility: 10 miles , 16 km
Cloud details: Partly cloudy 3900 ft
Partly cloudy 6000 ft
Overcast 6500 ft
2017/05/25 21:35 KUNU 252135Z AUTO 36007KT 10SM SCT039 SCT060 OVC065 19/12 A2968 RMK AO2 T01930115